createdAt,value
2023-01-21T00:01:18.296Z,100543.80
2023-01-21T00:03:46.582Z,100546.60
2023-01-21T00:06:17.193Z,100548.40
2023-01-21T00:08:44.970Z,100554.60
2023-01-21T00:11:15.405Z,100548.40
2023-01-21T00:13:44.275Z,100548.00
2023-01-21T00:16:13.207Z,100541.20
2023-01-21T00:18:41.562Z,100536.40
2023-01-21T00:21:09.779Z,100533.20
2023-01-21T00:23:37.646Z,100537.40
2023-01-21T00:26:08.180Z,100534.40
2023-01-21T00:28:37.526Z,100538.40
2023-01-21T00:31:10.641Z,100533.60
2023-01-21T00:33:41.411Z,100528.80
2023-01-21T00:36:12.620Z,100520.60
2023-01-21T00:38:40.598Z,100508.40
2023-01-21T00:41:13.680Z,100509.00
2023-01-21T00:43:42.466Z,100500.80
2023-01-21T00:46:12.033Z,100508.80
2023-01-21T00:48:40.425Z,100513.60
2023-01-21T00:51:09.901Z,100510.80
2023-01-21T00:53:42.159Z,100510.20
2023-01-21T00:56:13.746Z,100504.00
2023-01-21T00:58:43.534Z,100496.80
2023-01-21T01:01:19.352Z,100485.60
2023-01-21T01:03:49.542Z,100493.60
2023-01-21T01:06:23.580Z,100490.80
2023-01-21T01:08:52.064Z,100482.80
2023-01-21T01:11:21.655Z,100480.00
2023-01-21T01:13:49.501Z,100476.00
2023-01-21T01:16:17.748Z,100480.40
2023-01-21T01:18:49.430Z,100488.00
2023-01-21T01:21:22.258Z,100479.80
2023-01-21T01:23:54.769Z,100483.00
2023-01-21T01:26:22.722Z,100487.40
2023-01-21T01:28:53.184Z,100484.60
2023-01-21T01:31:21.963Z,100474.00
2023-01-21T01:33:49.810Z,100462.80
2023-01-21T01:36:25.545Z,100459.80
2023-01-21T01:38:54.168Z,100462.80
2023-01-21T01:41:29.904Z,100464.20
2023-01-21T01:44:26.376Z,100452.20
2023-01-21T01:46:56.771Z,100446.60
2023-01-21T01:49:24.539Z,100437.20
2023-01-21T01:52:04.524Z,100435.00
2023-01-21T01:54:38.444Z,100421.20
2023-01-21T01:57:11.048Z,100417.00
2023-01-21T01:59:40.368Z,100413.20
2023-01-21T02:02:13.957Z,100409.20
2023-01-21T02:07:47.157Z,100389.40
2023-01-21T02:10:20.703Z,100380.60
2023-01-21T02:12:48.764Z,100380.00
2023-01-21T02:15:16.551Z,100383.20
2023-01-21T02:18:11.670Z,100369.20
2023-01-21T02:21:16.665Z,100366.20
2023-01-21T02:24:06.972Z,100368.20
2023-01-21T02:26:46.204Z,100367.00
2023-01-21T02:29:35.672Z,100373.20
2023-01-21T02:32:36.091Z,100369.60
2023-01-21T02:35:27.764Z,100367.60
2023-01-21T02:38:11.793Z,100367.40
2023-01-21T02:41:07.881Z,100370.80
2023-01-21T02:44:13.248Z,100367.20
2023-01-21T02:47:25.457Z,100363.40
2023-01-21T02:50:01.114Z,100362.80
2023-01-21T02:52:29.220Z,100361.40
2023-01-21T02:54:59.581Z,100363.20
2023-01-21T02:57:50.871Z,100359.00
2023-01-21T03:00:34.963Z,100351.60
2023-01-21T03:03:41.422Z,100347.40
2023-01-21T03:06:46.152Z,100343.80
2023-01-21T03:09:23.828Z,100344.00
2023-01-21T03:12:25.630Z,100346.00
2023-01-21T03:15:41.335Z,100326.20
2023-01-21T03:18:43.622Z,100319.40
2023-01-21T03:21:21.783Z,100314.80
2023-01-21T03:23:52.630Z,100310.00
2023-01-21T03:26:38.743Z,100309.00
2023-01-21T03:29:14.066Z,100299.00
2023-01-21T03:31:45.653Z,100292.80
2023-01-21T03:34:16.775Z,100295.40
2023-01-21T03:37:07.552Z,100294.40
2023-01-21T03:39:44.540Z,100291.20
2023-01-21T03:42:14.024Z,100295.20
2023-01-21T03:44:42.302Z,100290.20
2023-01-21T03:47:20.172Z,100288.40
2023-01-21T03:49:56.347Z,100280.60
2023-01-21T03:52:26.095Z,100279.00
2023-01-21T03:54:54.401Z,100275.80
2023-01-21T03:57:22.180Z,100269.60
2023-01-21T03:59:49.978Z,100261.80
2023-01-21T04:02:20.307Z,100261.20
2023-01-21T04:04:49.512Z,100258.40
2023-01-21T04:07:17.476Z,100255.40
2023-01-21T04:09:45.846Z,100258.60
2023-01-21T04:12:13.900Z,100257.20
2023-01-21T04:14:41.660Z,100263.20
2023-01-21T04:17:09.892Z,100274.00
2023-01-21T04:19:37.689Z,100271.00
2023-01-21T04:22:05.425Z,100272.80
2023-01-21T04:24:34.658Z,100271.00
2023-01-21T04:27:02.832Z,100281.20
2023-01-21T04:29:30.557Z,100284.00
2023-01-21T04:31:58.403Z,100283.20
2023-01-21T04:34:26.317Z,100287.20
2023-01-21T04:36:54.007Z,100285.60
2023-01-21T04:39:21.735Z,100288.80
2023-01-21T04:41:49.536Z,100294.60
2023-01-21T04:44:17.320Z,100286.60
2023-01-21T04:46:45.039Z,100284.80
2023-01-21T04:49:12.804Z,100289.40
2023-01-21T04:51:40.523Z,100280.60
2023-01-21T04:54:10.617Z,100281.00
2023-01-21T04:56:38.411Z,100283.80
2023-01-21T04:59:06.084Z,100274.00
2023-01-21T05:01:33.964Z,100278.20
2023-01-21T05:04:01.699Z,100278.20
2023-01-21T05:06:29.587Z,100278.00
2023-01-21T05:08:57.576Z,100271.60
2023-01-21T05:11:25.603Z,100272.80
2023-01-21T05:13:53.358Z,100275.00
2023-01-21T05:16:21.323Z,100275.80
2023-01-21T05:18:49.314Z,100271.60
2023-01-21T05:21:17.014Z,100272.20
2023-01-21T05:23:44.792Z,100263.40
2023-01-21T05:26:15.151Z,100262.40
2023-01-21T05:28:42.959Z,100265.60
2023-01-21T05:31:10.923Z,100268.20
2023-01-21T05:33:38.882Z,100266.80
2023-01-21T05:36:07.141Z,100269.00
2023-01-21T05:38:34.845Z,100260.40
2023-01-21T05:41:03.888Z,100270.00
2023-01-21T05:43:31.710Z,100271.40
2023-01-21T05:45:59.485Z,100269.80
2023-01-21T05:48:29.583Z,100270.20
2023-01-21T05:50:58.472Z,100270.00
2023-01-21T05:53:26.801Z,100273.60
2023-01-21T05:55:56.235Z,100276.20
2023-01-21T05:58:25.377Z,100273.20
2023-01-21T06:00:53.421Z,100273.80
2023-01-21T06:03:21.235Z,100280.80
2023-01-21T06:05:50.117Z,100274.80
2023-01-21T06:08:18.631Z,100277.00
2023-01-21T06:10:46.475Z,100288.60
2023-01-21T06:13:16.381Z,100285.80
2023-01-21T06:15:44.190Z,100282.00
2023-01-21T06:18:11.997Z,100278.20
2023-01-21T06:20:40.151Z,100281.00
2023-01-21T06:23:10.866Z,100287.80
2023-01-21T06:25:39.045Z,100287.60
2023-01-21T06:28:08.850Z,100288.60
2023-01-21T06:30:36.789Z,100287.00
2023-01-21T06:33:04.544Z,100293.40
2023-01-21T06:35:32.513Z,100283.20
2023-01-21T06:38:00.289Z,100288.40
2023-01-21T06:40:28.133Z,100284.40
2023-01-21T06:42:55.929Z,100286.80
2023-01-21T06:45:23.683Z,100284.60
2023-01-21T06:47:51.429Z,100293.20
2023-01-21T06:50:19.463Z,100288.40
2023-01-21T06:52:48.277Z,100294.60
2023-01-21T06:55:17.195Z,100289.80
2023-01-21T06:57:44.939Z,100294.20
2023-01-21T07:00:13.397Z,100296.60
2023-01-21T07:02:41.243Z,100294.60
2023-01-21T07:05:12.013Z,100290.80
2023-01-21T07:07:39.752Z,100290.80
2023-01-21T07:10:09.166Z,100294.20
2023-01-21T07:12:36.937Z,100291.40
2023-01-21T07:15:05.882Z,100289.60
2023-01-21T07:17:33.487Z,100294.00
2023-01-21T07:20:01.203Z,100292.00
2023-01-21T07:22:29.024Z,100293.40
2023-01-21T07:24:56.925Z,100292.00
2023-01-21T07:27:24.701Z,100291.80
2023-01-21T07:29:53.029Z,100291.60
2023-01-21T07:32:20.889Z,100293.60
2023-01-21T07:34:48.667Z,100294.80
2023-01-21T07:37:16.422Z,100295.60
2023-01-21T07:39:44.274Z,100292.80
2023-01-21T07:42:12.146Z,100293.60
2023-01-21T07:44:40.055Z,100284.60
2023-01-21T07:47:08.006Z,100284.60
2023-01-21T07:49:35.752Z,100282.80
2023-01-21T07:52:03.560Z,100284.80
2023-01-21T07:54:31.367Z,100289.20
2023-01-21T07:56:59.178Z,100287.20
2023-01-21T07:59:26.941Z,100283.80
2023-01-21T08:01:54.970Z,100287.80
2023-01-21T08:04:22.855Z,100287.40
2023-01-21T08:06:52.938Z,100283.20
2023-01-21T08:09:20.752Z,100287.20
2023-01-21T08:11:50.696Z,100283.80
2023-01-21T08:14:18.507Z,100288.80
2023-01-21T08:16:46.280Z,100289.20
2023-01-21T08:19:14.249Z,100296.60
2023-01-21T08:21:42.021Z,100300.40
2023-01-21T08:24:09.967Z,100302.40
2023-01-21T08:26:40.100Z,100300.40
2023-01-21T08:29:08.135Z,100305.00
2023-01-21T08:31:38.872Z,100307.40
2023-01-21T08:34:06.884Z,100312.40
2023-01-21T08:36:34.785Z,100322.00
2023-01-21T08:39:06.416Z,100321.80
2023-01-21T08:41:34.331Z,100316.00
2023-01-21T08:44:02.314Z,100326.00
2023-01-21T08:46:30.169Z,100329.00
2023-01-21T08:48:58.134Z,100329.00
2023-01-21T08:51:26.243Z,100341.40
2023-01-21T08:53:54.227Z,100329.80
2023-01-21T08:56:21.951Z,100329.60
2023-01-21T08:58:58.063Z,100333.40
2023-01-21T09:01:26.623Z,100337.80
2023-01-21T09:03:56.792Z,100338.00
2023-01-21T09:06:27.571Z,100340.40
2023-01-21T09:08:56.162Z,100343.00
2023-01-21T09:11:25.498Z,100337.40
2023-01-21T09:13:53.485Z,100340.40
2023-01-21T09:16:23.517Z,100340.20
2023-01-21T09:18:51.392Z,100341.00
2023-01-21T09:21:19.284Z,100348.40
2023-01-21T09:23:47.145Z,100338.20
2023-01-21T09:26:16.940Z,100344.20
2023-01-21T09:28:50.438Z,100344.00
2023-01-21T09:31:23.937Z,100351.00
2023-01-21T09:33:58.382Z,100359.80
2023-01-21T09:36:30.163Z,100343.60
2023-01-21T09:38:58.389Z,100353.40
2023-01-21T09:41:42.091Z,100360.80
2023-01-21T09:44:25.277Z,100358.80
2023-01-21T09:47:29.265Z,100361.80
2023-01-21T09:50:20.575Z,100362.40
2023-01-21T09:53:00.945Z,100371.40
2023-01-21T09:55:36.807Z,100356.80
2023-01-21T09:58:43.028Z,100368.00
2023-01-21T10:01:21.344Z,100370.40
2023-01-21T10:04:05.819Z,100372.20
2023-01-21T10:06:51.746Z,100374.80
2023-01-21T10:09:47.513Z,100372.60
2023-01-21T10:12:15.187Z,100378.00
2023-01-21T10:15:10.911Z,100375.80
2023-01-21T10:18:18.577Z,100371.60
2023-01-21T10:21:06.089Z,100372.80
2023-01-21T10:23:42.863Z,100375.40
2023-01-21T10:26:14.841Z,100384.00
2023-01-21T10:28:54.297Z,100379.40
2023-01-21T10:31:26.659Z,100377.00
2023-01-21T10:33:55.627Z,100383.20
2023-01-21T10:37:21.809Z,100381.60
2023-01-21T10:40:42.013Z,100389.80
2023-01-21T10:43:40.649Z,100392.60
2023-01-21T10:46:18.971Z,100394.40
2023-01-21T10:49:13.602Z,100396.60
2023-01-21T10:51:58.488Z,100399.20
2023-01-21T10:54:49.111Z,100405.60
2023-01-21T10:57:50.691Z,100408.40
2023-01-21T11:00:30.980Z,100407.00
2023-01-21T11:03:11.557Z,100414.40
2023-01-21T11:05:39.985Z,100414.20
2023-01-21T11:08:17.275Z,100414.60
2023-01-21T11:10:46.903Z,100416.00
2023-01-21T11:13:17.347Z,100428.40
2023-01-21T11:15:52.177Z,100430.20
2023-01-21T11:18:32.718Z,100425.20
2023-01-21T11:21:15.802Z,100431.20
2023-01-21T11:23:53.289Z,100432.40
2023-01-21T11:26:27.671Z,100433.20
2023-01-21T11:29:19.992Z,100433.00
2023-01-21T11:31:52.740Z,100430.20
2023-01-21T11:34:23.102Z,100436.60
2023-01-21T11:37:02.753Z,100439.80
2023-01-21T11:39:36.703Z,100440.40
2023-01-21T11:42:19.142Z,100444.00
2023-01-21T11:44:54.002Z,100444.40
2023-01-21T11:47:38.728Z,100445.60
2023-01-21T11:50:15.311Z,100446.00
2023-01-21T11:52:43.331Z,100454.00
2023-01-21T11:55:26.481Z,100459.80
2023-01-21T11:57:56.461Z,100469.00
2023-01-21T12:00:27.436Z,100472.20
2023-01-21T12:03:01.800Z,100465.40
2023-01-21T12:05:33.392Z,100473.20
2023-01-21T12:08:07.252Z,100476.60
2023-01-21T12:10:43.744Z,100480.20
2023-01-21T12:13:26.311Z,100482.20
2023-01-21T12:16:25.570Z,100482.20
2023-01-21T12:19:03.997Z,100488.60
2023-01-21T12:21:51.956Z,100488.00
2023-01-21T12:24:54.998Z,100496.20
2023-01-21T12:27:41.041Z,100507.80
2023-01-21T12:30:51.732Z,100501.80
2023-01-21T12:33:32.064Z,100509.00
2023-01-21T12:36:15.291Z,100511.60
2023-01-21T12:38:50.474Z,100510.00
2023-01-21T12:41:23.809Z,100515.80
2023-01-21T12:44:00.746Z,100517.60
2023-01-21T12:46:37.075Z,100519.20
2023-01-21T12:49:15.694Z,100533.60
2023-01-21T12:51:52.796Z,100538.20
2023-01-21T12:54:36.247Z,100540.20
2023-01-21T12:57:29.203Z,100544.60
2023-01-21T13:00:23.073Z,100537.60
2023-01-21T13:02:54.008Z,100541.60
2023-01-21T13:05:42.072Z,100548.40
2023-01-21T13:08:34.476Z,100556.80
2023-01-21T13:11:34.401Z,100558.60
2023-01-21T13:14:07.837Z,100567.00
2023-01-21T13:16:54.225Z,100572.40
2023-01-21T13:19:22.819Z,100573.80
2023-01-21T13:22:16.910Z,100586.00
2023-01-21T13:25:02.067Z,100588.20
2023-01-21T13:28:07.982Z,100596.40
2023-01-21T13:30:45.212Z,100589.80
2023-01-21T13:33:23.790Z,100592.60
2023-01-21T13:36:04.460Z,100601.40
2023-01-21T13:39:04.999Z,100601.60
2023-01-21T13:41:50.839Z,100598.40
2023-01-21T13:44:27.554Z,100602.60
2023-01-21T13:47:45.696Z,100612.60
2023-01-21T13:50:52.429Z,100614.60
2023-01-21T13:53:33.940Z,100623.20
2023-01-21T13:56:29.281Z,100626.00
2023-01-21T13:59:04.778Z,100628.80
2023-01-21T14:01:44.457Z,100639.80
2023-01-21T14:04:27.617Z,100643.80
2023-01-21T14:07:07.158Z,100648.60
2023-01-21T14:09:47.715Z,100652.80
2023-01-21T14:12:44.260Z,100658.40
2023-01-21T14:15:35.526Z,100653.20
2023-01-21T14:18:34.765Z,100661.40
2023-01-21T14:21:36.250Z,100662.20
2023-01-21T14:24:37.745Z,100663.60
2023-01-21T14:27:33.624Z,100673.20
2023-01-21T14:30:20.024Z,100680.20
2023-01-21T14:33:03.429Z,100680.00
2023-01-21T14:36:09.906Z,100690.00
2023-01-21T14:39:02.892Z,100692.00
2023-01-21T14:42:04.879Z,100692.60
2023-01-21T14:44:43.116Z,100702.20
2023-01-21T14:47:18.374Z,100709.00
2023-01-21T14:49:51.048Z,100709.40
2023-01-21T14:52:31.895Z,100709.20
2023-01-21T14:55:01.059Z,100710.40
2023-01-21T14:57:36.104Z,100719.60
2023-01-21T15:00:12.871Z,100729.80
2023-01-21T15:02:47.045Z,100737.80
2023-01-21T15:05:26.582Z,100735.20
2023-01-21T15:08:19.499Z,100748.20
2023-01-21T15:10:57.674Z,100748.40
2023-01-21T15:13:34.697Z,100751.20
2023-01-21T15:16:07.444Z,100759.20
2023-01-21T15:18:45.298Z,100759.40
2023-01-21T15:21:42.827Z,100765.00
2023-01-21T15:24:40.178Z,100767.00
2023-01-21T15:27:25.843Z,100771.80
2023-01-21T15:29:53.770Z,100779.40
2023-01-21T15:32:49.271Z,100782.20
2023-01-21T15:35:34.502Z,100785.40
2023-01-21T15:38:08.158Z,100791.20
2023-01-21T15:40:47.442Z,100793.60
2023-01-21T15:43:42.902Z,100798.60
2023-01-21T15:46:40.286Z,100801.20
2023-01-21T15:49:48.177Z,100802.40
2023-01-21T15:52:40.795Z,100808.60
2023-01-21T15:55:39.115Z,100805.00
2023-01-21T15:58:33.856Z,100811.60
2023-01-21T16:01:23.410Z,100817.40
2023-01-21T16:04:24.510Z,100819.60
2023-01-21T16:07:30.806Z,100820.80
2023-01-21T16:10:44.803Z,100824.00
2023-01-21T16:13:32.581Z,100832.80
2023-01-21T16:16:24.614Z,100843.00
2023-01-21T16:19:03.255Z,100847.20
2023-01-21T16:21:38.554Z,100855.40
2023-01-21T16:24:14.598Z,100857.20
2023-01-21T16:26:43.486Z,100866.80
2023-01-21T16:29:15.282Z,100863.20
2023-01-21T16:32:02.893Z,100868.40
2023-01-21T16:34:30.818Z,100872.60
2023-01-21T16:36:58.846Z,100878.60
2023-01-21T16:39:26.653Z,100883.40
2023-01-21T16:42:04.370Z,100892.20
2023-01-21T16:44:36.732Z,100893.20
2023-01-21T16:47:20.848Z,100899.20
2023-01-21T16:49:48.841Z,100905.60
2023-01-21T16:52:20.050Z,100905.60
2023-01-21T16:54:53.173Z,100909.00
2023-01-21T16:57:31.550Z,100911.20
2023-01-21T17:00:02.259Z,100916.00
2023-01-21T17:02:33.494Z,100921.60
2023-01-21T17:05:05.978Z,100932.80
2023-01-21T17:07:43.362Z,100928.20
2023-01-21T17:10:35.311Z,100938.80
2023-01-21T17:13:07.407Z,100939.80
2023-01-21T17:15:41.745Z,100941.20
2023-01-21T17:18:21.913Z,100935.60
2023-01-21T17:21:00.700Z,100949.80
2023-01-21T17:23:38.282Z,100952.80
2023-01-21T17:26:30.144Z,100953.20
2023-01-21T17:29:09.282Z,100963.40
2023-01-21T17:31:42.947Z,100968.80
2023-01-21T17:34:10.734Z,100972.40
2023-01-21T17:36:40.573Z,100972.20
2023-01-21T17:39:10.606Z,100982.60
2023-01-21T17:41:41.429Z,100983.40
2023-01-21T17:44:23.538Z,100986.20
2023-01-21T17:46:54.286Z,100994.00
2023-01-21T17:49:25.238Z,100998.40
2023-01-21T17:51:54.778Z,101006.40
2023-01-21T17:54:26.463Z,101002.40
2023-01-21T17:56:57.870Z,101012.80
2023-01-21T17:59:31.552Z,101008.40
2023-01-21T18:01:59.361Z,101011.80
2023-01-21T18:04:27.830Z,101016.40
2023-01-21T18:06:56.550Z,101026.00
2023-01-21T18:09:25.471Z,101033.20
2023-01-21T18:11:58.991Z,101036.60
2023-01-21T18:14:27.005Z,101041.00
2023-01-21T18:16:55.287Z,101046.80
2023-01-21T18:19:34.323Z,101047.20
2023-01-21T18:22:03.464Z,101056.20
2023-01-21T18:24:32.279Z,101056.60
2023-01-21T18:27:03.560Z,101062.00
2023-01-21T18:29:31.397Z,101064.20
2023-01-21T18:31:59.331Z,101065.00
2023-01-21T18:34:27.382Z,101070.40
2023-01-21T18:36:58.246Z,101073.20
2023-01-21T18:39:26.222Z,101068.60
2023-01-21T18:41:54.204Z,101072.00
2023-01-21T18:44:21.999Z,101074.20
2023-01-21T18:46:52.290Z,101072.80
2023-01-21T18:49:21.173Z,101076.60
2023-01-21T18:51:49.129Z,101076.00
2023-01-21T18:54:20.907Z,101079.80
2023-01-21T18:56:48.693Z,101082.40
2023-01-21T18:59:19.246Z,101081.80
2023-01-21T19:01:50.058Z,101089.40
2023-01-21T19:04:18.961Z,101086.20
2023-01-21T19:06:47.789Z,101101.80
2023-01-21T19:09:23.942Z,101098.00
2023-01-21T19:11:52.389Z,101100.80
2023-01-21T19:14:20.208Z,101105.80
2023-01-21T19:16:51.026Z,101110.40
2023-01-21T19:19:21.206Z,101115.80
2023-01-21T19:21:49.024Z,101118.60
2023-01-21T19:24:16.798Z,101118.00
2023-01-21T19:26:44.740Z,101118.40
2023-01-21T19:29:21.606Z,101132.60
2023-01-21T19:31:49.483Z,101133.60
2023-01-21T19:34:18.562Z,101136.20
2023-01-21T19:36:47.608Z,101135.40
2023-01-21T19:39:21.856Z,101143.80
2023-01-21T19:42:03.390Z,101146.60
2023-01-21T19:44:35.207Z,101147.60
2023-01-21T19:47:03.168Z,101149.00
2023-01-21T19:49:31.536Z,101152.80
2023-01-21T19:51:59.303Z,101156.20
2023-01-21T19:54:27.074Z,101164.00
2023-01-21T19:56:56.024Z,101167.20
2023-01-21T19:59:23.851Z,101173.40
2023-01-21T20:01:51.662Z,101174.00
2023-01-21T20:04:19.439Z,101177.80
2023-01-21T20:06:47.627Z,101176.80
2023-01-21T20:09:17.785Z,101182.40
2023-01-21T20:11:45.740Z,101188.40
2023-01-21T20:14:13.474Z,101191.60
2023-01-21T20:16:51.624Z,101191.20
2023-01-21T20:19:20.832Z,101195.80
2023-01-21T20:21:59.875Z,101203.20
2023-01-21T20:24:34.199Z,101205.80
2023-01-21T20:27:05.213Z,101209.80
2023-01-21T20:29:34.657Z,101211.40
2023-01-21T20:32:06.949Z,101208.80
2023-01-21T20:34:34.875Z,101220.40
2023-01-21T20:37:05.683Z,101217.80
2023-01-21T20:39:33.583Z,101222.60
2023-01-21T20:42:01.334Z,101222.60
2023-01-21T20:44:29.245Z,101229.80
2023-01-21T20:47:00.102Z,101231.80
2023-01-21T20:49:27.891Z,101236.60
2023-01-21T20:51:55.715Z,101237.40
2023-01-21T20:54:24.842Z,101241.20
2023-01-21T20:56:52.713Z,101245.40
2023-01-21T20:59:21.794Z,101254.00
2023-01-21T21:01:51.330Z,101254.20
2023-01-21T21:04:19.072Z,101258.40
2023-01-21T21:06:47.056Z,101263.20
2023-01-21T21:09:14.767Z,101269.60
2023-01-21T21:11:42.579Z,101271.80
2023-01-21T21:14:13.372Z,101273.80
2023-01-21T21:16:44.115Z,101277.00
2023-01-21T21:19:12.523Z,101283.80
2023-01-21T21:21:40.268Z,101283.40
2023-01-21T21:24:08.058Z,101292.40
2023-01-21T21:26:38.083Z,101295.40
2023-01-21T21:29:11.647Z,101301.00
2023-01-21T21:31:39.507Z,101300.80
2023-01-21T21:34:10.366Z,101305.40
2023-01-21T21:36:41.591Z,101309.20
2023-01-21T21:39:09.511Z,101311.60
2023-01-21T21:41:56.079Z,101312.20
2023-01-21T21:44:23.920Z,101311.20
2023-01-21T21:47:10.489Z,101312.80
2023-01-21T21:49:38.219Z,101314.80
2023-01-21T21:52:06.041Z,101317.80
2023-01-21T21:54:33.840Z,101316.00
2023-01-21T21:57:01.658Z,101321.00
2023-01-21T21:59:29.546Z,101317.00
2023-01-21T22:02:00.642Z,101327.00
2023-01-21T22:04:28.575Z,101331.60
2023-01-21T22:06:56.728Z,101331.00
2023-01-21T22:09:24.538Z,101334.80
2023-01-21T22:11:52.300Z,101342.40
2023-01-21T22:14:20.017Z,101342.80
2023-01-21T22:16:49.935Z,101353.00
2023-01-21T22:19:17.863Z,101351.00
2023-01-21T22:21:45.768Z,101360.00
2023-01-21T22:24:14.155Z,101364.60
2023-01-21T22:26:41.890Z,101368.20
2023-01-21T22:29:10.164Z,101366.20
2023-01-21T22:31:38.002Z,101368.40
2023-01-21T22:34:05.836Z,101370.60
2023-01-21T22:36:33.663Z,101372.80
2023-01-21T22:39:01.587Z,101377.20
2023-01-21T22:41:29.636Z,101374.80
2023-01-21T22:43:57.634Z,101383.80
2023-01-21T22:46:31.457Z,101376.80
2023-01-21T22:48:59.745Z,101381.20
2023-01-21T22:51:28.148Z,101380.40
2023-01-21T22:53:56.363Z,101379.40
2023-01-21T22:56:44.906Z,101381.20
2023-01-21T22:59:14.220Z,101386.20
2023-01-21T23:01:42.456Z,101386.20
2023-01-21T23:04:10.502Z,101390.60
2023-01-21T23:06:38.467Z,101391.00
2023-01-21T23:09:09.341Z,101389.40
2023-01-21T23:11:42.216Z,101394.20
2023-01-21T23:14:10.224Z,101389.60
2023-01-21T23:16:38.284Z,101393.60
2023-01-21T23:19:09.093Z,101395.20
2023-01-21T23:21:38.379Z,101390.80
2023-01-21T23:24:10.083Z,101391.40
2023-01-21T23:26:37.963Z,101392.60
2023-01-21T23:29:05.767Z,101396.00
2023-01-21T23:31:33.731Z,101393.00
2023-01-21T23:34:03.257Z,101393.80
2023-01-21T23:36:31.125Z,101397.20
2023-01-21T23:38:58.893Z,101395.80
2023-01-21T23:41:26.925Z,101395.40
2023-01-21T23:43:58.276Z,101392.60
2023-01-21T23:46:26.793Z,101395.60
2023-01-21T23:48:55.092Z,101396.40
2023-01-21T23:51:23.036Z,101395.00
2023-01-21T23:53:50.925Z,101394.40
2023-01-21T23:56:26.315Z,101395.80
2023-01-21T23:58:54.524Z,101400.00
